Montezuma, NY (13117)

6:21 AM EST on March 02, 2015 (GMT -0500)
State Street | Change Station
CLOSE
Current Station
Personal Weather Station
Location: Seneca Falls, NY
Elevation: 499 ft
Nearby Weather Stations

Elev 499 ft 42.92 °N, 76.80 °W | Updated 2 seconds ago

Overcast
Overcast
22.0 °F
Feels Like 17 °F
N
4.0
Wind Variable Wind from West
Gusts 10.0 mph

Today
High -- | Low -- °F
--% Chance of Precip.
Yesterday
High -- | Low -- °F
Precip. -- in
6:41 AM 5:57 PM
Waxing Gibbous, 91% visible
Pressure 30.10 in
Visibility 4.0 miles
Clouds Mostly Cloudy 1100 ft
Overcast 1900 ft
Windchill 17 °F
Dew Point 18 °F
Humidity 86%
Rainfall 0.00 in
Snow Depth Not available.
UV 0 out of 12
Pollen .40 out of 12
Air Quality Not available.
Flu Activity Not available.
SPECI KFZY 021102Z AUTO 30008KT 4SM -SN BR BKN011 OVC019 M06/M08 A3010 RMK AO2 P0000 T10561078

More Conditions Fewer Conditions

Pressure 30.10 in
Visibility 4.0 miles
Clouds Mostly Cloudy 1100 ft
Overcast 1900 ft
Windchill 17 °F
Dew Point 18 °F
Humidity 86%
Rainfall 0.00 in
Snow Depth Not available.
UV 0 out of 12
Pollen .40 out of 12
Air Quality Not available.
Flu Activity Not available.
SPECI KFZY 021102Z AUTO 30008KT 4SM -SN BR BKN011 OVC019 M06/M08 A3010 RMK AO2 P0000 T10561078

More Conditions Fewer Conditions

10-Day Weather Forecast

Almanac

Astronomy

Mar. 02, 2015 Rise Set
Actual Time
Civil Twilight
Nautical Twilight
Astronomical Twilight
Moon
Length of Visible Light
Length of Day
Tomorrow will be .
, % of the Moon is Illuminated

Today's Extremes

State Highs State Lows

Community

WunderPhotos

Upload Photos

1,801,756 photos uploaded!

WunderBlogs® & News

Nearby

Air Quality

  Air Quality AQ Index Pollutant
Not available.

Snow Depth

Station Depth Elevation

Earthquake Activity

City Distance Mag. Time & Date
Minimum magnitude displayed is 2.5.

Coastal Water Temperatures

Place Temperature

Nearby Weather Stations